Lind, Washington
Current Conditions -  °F | °C
As of 7:52 AM on Friday 24 Oct 2014 (Local Time) from KMWH Reporting Station
Clear Clear  
Wind Chill: 41°   Ceiling: Unl
Heat Index: 41°   Visibility: 10mi
Dew Point: 39°   Wind: 0mph
Humidity: 93%   Direction: NA
Pressure: 30.06"   Gusts: NA
Location:  46.97°N, 118.62°W
Report Text: KMWH 241452Z 00000KT 10SM CLR 05/04 A3006 RMK AO2 SLP234 T00500039 51012
Loading
Personal Weather Stations






























Interactive Weather Map
Tropical Storm Tracking
New forecast layout! Learn more

10-Day Weather Forecast

Advertisements
Track Severe Weather on mobile